Time;durP1;ratioP1;P1;durP2;ratioP2;P2;SDS_P1;SDS_P2;PMS_P1;PMS_P2;Temp;Humidity;BMP_temperature;BMP_pressure;BME280_temperature;BME280_humidity;BME280_pressure;Samples;Min_cycle;Max_cycle;Signal;HPM_P1;HPM_P2
2021/09/11 00:02:03;;;;;;;5.30;3.37;;;;;;;22.52;55.06;100902.39;1751962;81;21155;-57
2021/09/11 00:04:29;;;;;;;4.30;3.00;;;;;;;22.52;55.06;100902.95;1752223;81;21059;-56
2021/09/11 00:06:55;;;;;;;3.98;3.15;;;;;;;22.53;55.05;100908.75;1755135;81;21052;-56
2021/09/11 00:09:21;;;;;;;5.47;3.22;;;;;;;22.52;55.05;100905.73;1748634;81;21580;-56
2021/09/11 00:11:47;;;;;;;4.10;3.10;;;;;;;22.51;55.04;100903.52;1747594;81;21004;-56
2021/09/11 00:14:13;;;;;;;4.85;3.05;;;;;;;22.52;55.05;100901.57;1743662;81;21240;-57
2021/09/11 00:16:41;;;;;;;5.10;3.20;;;;;;;22.51;55.04;100900.75;1749688;81;21562;-57
2021/09/11 00:19:07;;;;;;;5.05;3.27;;;;;;;22.52;55.06;100901.00;1737141;81;21947;-57
2021/09/11 00:21:33;;;;;;;6.03;4.00;;;;;;;22.51;55.03;100891.61;1739539;81;21061;-56
2021/09/11 00:23:59;;;;;;;4.00;3.02;;;;;;;22.50;55.04;100891.36;1745530;81;21147;-56
2021/09/11 00:26:25;;;;;;;4.25;2.58;;;;;;;22.51;55.03;100893.00;1747467;81;21065;-57
2021/09/11 00:28:53;;;;;;;4.03;2.95;;;;;;;22.49;55.02;100890.55;1753152;81;21147;-57
2021/09/11 00:31:19;;;;;;;4.28;3.08;;;;;;;22.50;55.03;100889.41;1741582;81;21072;-57
2021/09/11 00:33:45;;;;;;;3.55;2.72;;;;;;;22.48;55.03;100881.19;1741801;81;20945;-56
2021/09/11 00:36:11;;;;;;;4.20;2.95;;;;;;;22.49;55.04;100881.44;1749345;81;21747;-56
2021/09/11 00:38:37;;;;;;;4.80;3.15;;;;;;;22.50;55.03;100881.09;1784239;78;21955;-56
2021/09/11 00:41:03;;;;;;;4.20;2.90;;;;;;;22.49;55.03;100880.05;1784121;78;21058;-57
2021/09/11 00:43:30;;;;;;;4.22;2.67;;;;;;;22.49;55.02;100880.84;1789488;78;21029;-56
2021/09/11 00:45:56;;;;;;;4.65;3.10;;;;;;;22.47;55.02;100880.38;1795792;78;21035;-57
2021/09/11 00:48:22;;;;;;;3.75;2.87;;;;;;;22.47;55.02;100880.38;1793652;79;20911;-56
2021/09/11 00:50:48;;;;;;;3.42;2.42;;;;;;;22.47;55.02;100878.17;1792116;78;21151;-56
2021/09/11 00:53:15;;;;;;;5.65;3.30;;;;;;;22.47;55.03;100876.22;1786732;78;20990;-56
2021/09/11 00:55:43;;;;;;;4.25;2.95;;;;;;;22.47;54.99;100876.78;1791589;78;21128;-57
2021/09/11 00:58:09;;;;;;;3.55;2.92;;;;;;;22.47;54.99;100871.23;1790049;79;21054;-56
2021/09/11 01:00:35;;;;;;;4.10;2.83;;;;;;;22.46;54.99;100875.97;1790638;77;20983;-56
2021/09/11 01:03:01;;;;;;;3.95;2.67;;;;;;;22.46;54.99;100868.22;1790747;79;20978;-57
2021/09/11 01:05:27;;;;;;;3.40;2.77;;;;;;;22.46;54.98;100873.76;1788156;79;21030;-56
2021/09/11 01:07:53;;;;;;;4.75;2.95;;;;;;;22.46;54.98;100876.53;1790094;79;21430;-56
2021/09/11 01:10:19;;;;;;;4.15;3.08;;;;;;;22.46;54.98;100877.35;1792096;79;20887;-56
2021/09/11 01:12:47;;;;;;;4.17;2.70;;;;;;;22.45;54.98;100870.77;1791986;78;21111;-56
2021/09/11 01:15:13;;;;;;;3.85;2.85;;;;;;;22.44;54.99;100869.12;1788923;78;21266;-56
2021/09/11 01:17:41;;;;;;;3.95;2.90;;;;;;;22.44;54.98;100878.27;1787145;79;21034;-57
2021/09/11 01:20:08;;;;;;;5.20;3.10;;;;;;;22.45;54.97;100880.47;1789342;79;21070;-57
2021/09/11 01:22:35;;;;;;;3.25;2.67;;;;;;;22.44;54.97;100874.11;1794734;79;21071;-57
2021/09/11 01:25:04;;;;;;;4.37;2.80;;;;;;;22.43;54.96;100872.47;1789930;78;21006;-57
2021/09/11 01:27:31;;;;;;;3.58;2.52;;;;;;;22.43;54.96;100866.92;1791065;78;21446;-57
2021/09/11 01:30:02;;;;;;;3.30;2.60;;;;;;;22.43;54.95;100869.70;1787751;78;21016;-56
2021/09/11 01:32:30;;;;;;;3.83;2.37;;;;;;;22.44;54.97;100863.59;1787708;78;21108;-56
2021/09/11 01:34:56;;;;;;;3.15;2.50;;;;;;;22.43;54.96;100864.72;1788567;79;21061;-56
2021/09/11 01:37:22;;;;;;;3.58;2.80;;;;;;;22.43;54.96;100873.03;1789590;78;21050;-56
2021/09/11 01:39:49;;;;;;;4.12;2.90;;;;;;;22.42;54.95;100870.02;1786188;79;21484;-56
2021/09/11 01:42:24;;;;;;;4.25;2.85;;;;;;;22.41;54.97;100871.97;1787353;79;21100;-57
2021/09/11 01:44:54;;;;;;;4.00;2.90;;;;;;;22.40;54.95;100868.98;1792484;78;21167;-57
2021/09/11 01:47:21;;;;;;;4.78;2.42;;;;;;;22.42;54.94;100870.02;1797955;79;21090;-56
2021/09/11 01:49:47;;;;;;;4.55;3.02;;;;;;;22.42;54.93;100868.63;1791983;79;21126;-57
2021/09/11 01:52:13;;;;;;;3.77;2.20;;;;;;;22.41;54.93;100868.38;1790471;78;21015;-56
2021/09/11 01:54:39;;;;;;;3.52;2.37;;;;;;;22.40;54.93;100870.93;1796124;79;21027;-56
2021/09/11 01:57:06;;;;;;;5.37;2.42;;;;;;;22.40;54.93;100866.77;1789889;79;21067;-56
2021/09/11 01:59:34;;;;;;;3.70;2.60;;;;;;;22.39;54.93;100863.19;1792230;79;21689;-58
2021/09/11 02:02:00;;;;;;;4.00;2.58;;;;;;;22.39;54.93;100870.11;1790568;78;21038;-56
2021/09/11 02:04:26;;;;;;;3.67;2.70;;;;;;;22.38;54.94;100868.48;1793773;78;21892;-56
2021/09/11 02:06:52;;;;;;;3.70;2.40;;;;;;;22.38;54.92;100861.55;1789590;78;20931;-56
2021/09/11 02:09:18;;;;;;;3.37;2.30;;;;;;;22.39;54.94;100868.73;1787890;78;21005;-57
2021/09/11 02:11:44;;;;;;;4.10;2.50;;;;;;;22.37;54.92;100866.84;1795460;79;20891;-56
2021/09/11 02:14:10;;;;;;;3.40;2.45;;;;;;;22.38;54.94;100865.70;1789592;79;21077;-56
2021/09/11 02:16:36;;;;;;;3.75;2.40;;;;;;;22.38;54.92;100861.55;1789161;79;21591;-55
2021/09/11 02:19:02;;;;;;;3.52;2.40;;;;;;;22.37;54.92;100864.06;1788721;78;21050;-56
2021/09/11 02:21:29;;;;;;;3.85;2.40;;;;;;;22.37;54.91;100858.52;1787217;79;21003;-56
2021/09/11 02:23:55;;;;;;;3.42;2.55;;;;;;;22.36;54.89;100863.84;1793025;78;21136;-56
2021/09/11 02:26:21;;;;;;;3.25;2.15;;;;;;;22.37;54.91;100859.09;1789060;78;21583;-56
2021/09/11 02:28:47;;;;;;;3.75;2.40;;;;;;;22.37;54.90;100861.86;1794217;78;21091;-56
2021/09/11 02:31:13;;;;;;;3.52;2.70;;;;;;;22.37;54.91;100860.48;1793296;79;21135;-57
2021/09/11 02:33:41;;;;;;;2.90;2.25;;;;;;;22.36;54.89;100865.23;1796863;79;20879;-57
2021/09/11 02:36:07;;;;;;;3.30;2.42;;;;;;;22.35;54.88;100860.01;1793181;78;21583;-57
2021/09/11 02:38:33;;;;;;;3.30;2.30;;;;;;;22.35;54.88;100864.98;1798983;78;21105;-57
2021/09/11 02:40:59;;;;;;;3.17;2.37;;;;;;;22.35;54.87;100869.14;1786050;78;21320;-57
2021/09/11 02:43:25;;;;;;;4.55;2.65;;;;;;;22.34;54.88;100868.89;1788733;78;21485;-56
2021/09/11 02:45:52;;;;;;;3.72;2.50;;;;;;;22.34;54.87;100868.89;1795517;78;20997;-57
2021/09/11 02:48:18;;;;;;;3.75;2.42;;;;;;;22.35;54.87;100870.52;1787117;78;21068;-56
2021/09/11 02:50:44;;;;;;;4.10;2.50;;;;;;;22.34;54.86;100868.89;1788475;78;21572;-57
2021/09/11 02:53:10;;;;;;;3.12;2.10;;;;;;;22.33;54.85;100862.53;1790472;78;21919;-56
2021/09/11 02:55:36;;;;;;;3.27;2.10;;;;;;;22.33;54.85;100870.84;1791911;79;20991;-56
2021/09/11 02:58:03;;;;;;;3.65;2.45;;;;;;;22.33;54.86;100871.41;1786286;79;21024;-56
2021/09/11 03:00:29;;;;;;;2.62;2.08;;;;;;;22.33;54.84;100877.77;1788103;78;21183;-55
2021/09/11 03:02:55;;;;;;;3.52;2.22;;;;;;;22.32;54.86;100878.91;1794730;79;21006;-56
2021/09/11 03:05:21;;;;;;;3.42;2.22;;;;;;;22.31;54.83;100880.07;1787293;79;21393;-56
2021/09/11 03:07:47;;;;;;;3.58;2.42;;;;;;;22.31;54.83;100882.03;1795140;78;20993;-57
2021/09/11 03:10:13;;;;;;;3.85;2.52;;;;;;;22.32;54.85;100885.02;1794908;79;21052;-56
2021/09/11 03:12:39;;;;;;;3.85;2.12;;;;;;;22.32;54.85;100885.84;1746199;80;21058;-56
2021/09/11 03:15:07;;;;;;;3.27;2.12;;;;;;;22.32;54.83;100883.63;1795439;79;21180;-56
2021/09/11 03:17:33;;;;;;;3.08;2.10;;;;;;;22.31;54.83;100880.64;1785970;78;21121;-56
2021/09/11 03:19:59;;;;;;;3.50;2.30;;;;;;;22.31;54.83;100887.57;1790948;79;20915;-56
2021/09/11 03:22:25;;;;;;;2.80;2.12;;;;;;;22.31;54.80;100890.34;1790645;78;20904;-57
2021/09/11 03:24:51;;;;;;;2.75;1.82;;;;;;;22.30;54.82;100883.98;1790802;79;21402;-56
2021/09/11 03:27:17;;;;;;;3.20;2.10;;;;;;;22.30;54.82;100886.75;1784749;78;20917;-56
2021/09/11 03:29:43;;;;;;;4.17;2.40;;;;;;;22.29;54.80;100887.89;1789288;79;21171;-57
2021/09/11 03:32:09;;;;;;;3.00;1.75;;;;;;;22.29;54.81;100885.12;1786922;79;20994;-56
2021/09/11 03:34:36;;;;;;;4.00;2.42;;;;;;;22.29;54.80;100882.34;1799177;78;20996;-56
2021/09/11 03:37:03;;;;;;;2.45;1.92;;;;;;;22.28;54.78;100883.48;1792654;79;21032;-57
2021/09/11 03:39:29;;;;;;;4.65;2.17;;;;;;;22.29;54.81;100882.91;1782346;79;21085;-56
2021/09/11 03:41:55;;;;;;;2.98;2.20;;;;;;;22.29;54.81;100884.30;1768944;79;21190;-56
2021/09/11 03:44:21;;;;;;;2.83;1.95;;;;;;;22.28;54.78;100887.64;1775023;79;20992;-56
2021/09/11 03:46:47;;;;;;;4.03;2.30;;;;;;;22.28;54.78;100882.09;1783406;79;21086;-57
2021/09/11 03:49:13;;;;;;;2.75;2.10;;;;;;;22.28;54.79;100881.27;1779416;79;21017;-57
2021/09/11 03:51:40;;;;;;;3.33;2.20;;;;;;;22.27;54.78;100878.28;1772458;79;21003;-56
2021/09/11 03:54:06;;;;;;;3.55;2.50;;;;;;;22.29;54.77;100880.14;1806047;78;21505;-56
2021/09/11 03:56:32;;;;;;;3.25;2.33;;;;;;;22.27;54.77;100874.13;1781083;78;21583;-56
2021/09/11 03:58:58;;;;;;;3.12;2.00;;;;;;;22.26;54.76;100870.53;1801780;78;21022;-57
2021/09/11 04:01:24;;;;;;;2.70;2.02;;;;;;;22.26;54.78;100876.08;1801858;78;21626;-56
2021/09/11 04:03:50;;;;;;;2.87;2.08;;;;;;;22.26;54.77;100876.08;1777993;78;21034;-57
2021/09/11 04:06:16;;;;;;;2.65;1.95;;;;;;;22.26;54.76;100873.30;1782593;78;21027;-56
2021/09/11 04:08:42;;;;;;;2.25;1.85;;;;;;;22.25;54.77;100877.21;1790255;78;21631;-56
2021/09/11 04:11:08;;;;;;;2.58;1.92;;;;;;;22.25;54.76;100877.21;1774807;78;21070;-56
2021/09/11 04:13:34;;;;;;;3.00;1.95;;;;;;;22.26;54.76;100880.23;1801942;78;20962;-56
2021/09/11 04:16:00;;;;;;;3.52;2.22;;;;;;;22.25;54.74;100879.16;1809775;78;21445;-56
2021/09/11 04:18:26;;;;;;;3.25;2.10;;;;;;;22.24;54.73;100878.34;1805386;78;21669;-56
2021/09/11 04:20:52;;;;;;;3.55;2.35;;;;;;;22.25;54.74;100883.32;1801462;78;21194;-57
2021/09/11 04:23:18;;;;;;;3.20;2.27;;;;;;;22.24;54.74;100882.50;1806550;78;20975;-57
2021/09/11 04:25:45;;;;;;;3.02;2.10;;;;;;;22.24;54.75;100879.73;1791924;78;21139;-56
2021/09/11 04:28:12;;;;;;;2.00;1.55;;;;;;;22.25;54.73;100883.32;1787889;78;21464;-56
2021/09/11 04:30:38;;;;;;;3.42;2.10;;;;;;;22.25;54.72;100876.39;1795712;78;23153;-57
2021/09/11 04:33:05;;;;;;;2.72;2.08;;;;;;;22.24;54.72;100878.34;1790648;78;21034;-57
2021/09/11 04:35:31;;;;;;;2.37;1.65;;;;;;;22.25;54.71;100881.94;1809673;78;21113;-56
2021/09/11 04:37:57;;;;;;;2.75;1.80;;;;;;;22.24;54.71;100883.89;1786978;78;21127;-56
2021/09/11 04:40:23;;;;;;;3.35;2.10;;;;;;;22.25;54.71;100895.23;1777194;79;21058;-56
2021/09/11 04:42:49;;;;;;;2.52;1.90;;;;;;;22.25;54.70;100888.86;1765316;79;21326;-56
2021/09/11 04:45:15;;;;;;;2.70;2.10;;;;;;;22.24;54.71;100892.77;1780394;79;21042;-56
2021/09/11 04:47:41;;;;;;;2.92;1.95;;;;;;;22.24;54.68;100901.09;1791609;79;21501;-57
2021/09/11 04:50:09;;;;;;;3.10;2.12;;;;;;;22.24;54.70;100890.00;1794921;79;20911;-56
2021/09/11 04:52:35;;;;;;;2.85;1.80;;;;;;;22.24;54.68;100887.23;1791967;79;21073;-57
2021/09/11 04:55:01;;;;;;;2.92;1.80;;;;;;;22.24;54.67;100892.77;1790942;78;21641;-57
2021/09/11 04:57:27;;;;;;;2.33;1.92;;;;;;;22.24;54.66;100883.06;1795245;78;21042;-57
2021/09/11 04:59:53;;;;;;;2.50;1.80;;;;;;;22.24;54.67;100881.69;1789435;78;20891;-57
2021/09/11 05:02:19;;;;;;;2.45;1.72;;;;;;;22.23;54.66;100882.28;1784251;79;21674;-56
2021/09/11 05:04:45;;;;;;;2.12;1.60;;;;;;;22.23;54.65;100879.52;1797483;78;21066;-57
2021/09/11 05:07:11;;;;;;;2.87;1.90;;;;;;;22.23;54.65;100878.69;1786856;78;21294;-57
2021/09/11 05:09:37;;;;;;;2.72;1.87;;;;;;;22.24;54.65;100878.91;1793900;79;21829;-57
2021/09/11 05:12:06;;;;;;;2.92;1.87;;;;;;;22.23;54.63;100885.05;1790338;78;21009;-57
2021/09/11 05:14:32;;;;;;;3.30;1.77;;;;;;;22.24;54.63;100885.84;1793139;79;21485;-57
2021/09/11 05:16:58;;;;;;;2.55;1.72;;;;;;;22.22;54.64;100882.03;1789794;78;21070;-57
2021/09/11 05:19:24;;;;;;;3.37;2.02;;;;;;;22.23;54.65;100880.08;1793742;78;21453;-57
2021/09/11 05:21:50;;;;;;;2.90;1.90;;;;;;;22.22;54.61;100877.87;1796329;79;20943;-57
2021/09/11 05:24:16;;;;;;;3.10;1.90;;;;;;;22.24;54.61;100883.06;1788502;78;20999;-57
2021/09/11 05:26:44;;;;;;;2.75;2.08;;;;;;;22.23;54.61;100884.23;1791997;79;21440;-56
2021/09/11 05:29:10;;;;;;;2.20;1.52;;;;;;;22.23;54.59;100885.05;1795163;78;21130;-57
2021/09/11 05:31:36;;;;;;;2.45;1.80;;;;;;;22.22;54.59;100885.38;1795498;79;21500;-56
2021/09/11 05:34:05;;;;;;;2.92;1.72;;;;;;;22.22;54.57;100882.03;1768689;79;37879;-55
2021/09/11 05:36:32;;;;;;;2.80;1.80;;;;;;;22.22;54.59;100881.21;1795406;78;21070;-56
2021/09/11 05:38:59;;;;;;;2.58;1.80;;;;;;;22.22;54.58;100880.64;1791280;78;21009;-56
2021/09/11 05:41:25;;;;;;;2.37;1.60;;;;;;;22.22;54.55;100877.05;1793235;79;21064;-56
2021/09/11 05:43:51;;;;;;;2.35;1.70;;;;;;;22.21;54.56;100870.70;1794650;78;21449;-56
2021/09/11 05:46:17;;;;;;;2.35;1.72;;;;;;;22.22;54.55;100874.28;1789365;78;21105;-56
2021/09/11 05:48:44;;;;;;;2.75;2.00;;;;;;;22.22;54.55;100875.67;1786365;78;21038;-56
2021/09/11 05:51:10;;;;;;;2.65;1.80;;;;;;;22.22;54.55;100886.19;1796022;78;21533;-56
2021/09/11 05:53:36;;;;;;;3.62;1.67;;;;;;;22.22;54.54;100882.03;1792859;79;20943;-56
2021/09/11 05:56:02;;;;;;;2.52;1.72;;;;;;;22.22;54.55;100886.75;1792529;78;21593;-56
2021/09/11 05:58:29;;;;;;;1.95;1.42;;;;;;;22.22;54.55;100890.91;1791339;79;21025;-56
2021/09/11 06:00:56;;;;;;;2.45;1.90;;;;;;;22.22;54.53;100894.50;1791561;78;21027;-56
2021/09/11 06:03:22;;;;;;;2.30;1.72;;;;;;;22.23;54.52;100894.75;1792480;79;21037;-56
2021/09/11 06:05:49;;;;;;;2.08;1.52;;;;;;;22.24;54.51;100890.00;1794680;78;21053;-56
2021/09/11 06:08:15;;;;;;;2.60;1.87;;;;;;;22.24;54.52;100890.00;1792952;78;22122;-56
2021/09/11 06:10:41;;;;;;;2.72;1.87;;;;;;;22.23;54.51;100887.01;1787597;79;21003;-56
2021/09/11 06:13:07;;;;;;;2.80;2.02;;;;;;;22.24;54.50;100894.97;1791921;79;21421;-56
2021/09/11 06:15:33;;;;;;;2.80;1.60;;;;;;;22.24;54.51;100894.16;1793052;79;20891;-56
2021/09/11 06:18:00;;;;;;;1.80;1.47;;;;;;;22.24;54.49;100889.43;1792907;78;21003;-56
2021/09/11 06:20:26;;;;;;;2.65;1.80;;;;;;;22.24;54.49;100883.06;1796722;79;20976;-57
2021/09/11 06:22:52;;;;;;;3.60;1.55;;;;;;;22.24;54.47;100883.89;1791494;79;21026;-56
2021/09/11 06:25:18;;;;;;;2.25;1.70;;;;;;;22.25;54.46;100890.25;1794286;78;21076;-57
2021/09/11 06:27:44;;;;;;;1.95;1.52;;;;;;;22.24;54.46;100892.20;1790417;78;21062;-57
2021/09/11 06:30:12;;;;;;;2.92;1.80;;;;;;;22.25;54.44;100895.23;1786683;79;20993;-56
2021/09/11 06:32:38;;;;;;;2.33;1.77;;;;;;;22.25;54.46;100899.95;1790938;79;21009;-56
2021/09/11 06:35:06;;;;;;;2.58;1.60;;;;;;;22.25;54.44;100906.88;1795627;78;21102;-56
2021/09/11 06:37:33;;;;;;;2.50;1.70;;;;;;;22.25;54.43;100906.31;1791275;78;21119;-56
2021/09/11 06:40:00;;;;;;;2.75;1.90;;;;;;;22.26;54.44;100907.13;1790218;79;21054;-56
2021/09/11 06:42:26;;;;;;;2.00;1.50;;;;;;;22.26;54.43;100909.91;1770091;79;20998;-57
2021/09/11 06:44:52;;;;;;;2.30;1.80;;;;;;;22.26;54.42;100909.91;1788794;79;21225;-56
2021/09/11 06:47:18;;;;;;;2.27;1.70;;;;;;;22.25;54.41;100904.11;1793928;79;21091;-56
2021/09/11 06:49:44;;;;;;;2.60;1.55;;;;;;;22.26;54.41;100904.36;1791619;78;21124;-56
2021/09/11 06:52:11;;;;;;;2.33;1.60;;;;;;;22.25;54.42;100895.79;1793610;78;21082;-56
2021/09/11 06:54:37;;;;;;;2.55;1.75;;;;;;;22.26;54.42;100900.20;1787404;78;20995;-56
2021/09/11 06:57:04;;;;;;;2.42;1.67;;;;;;;22.26;54.42;100902.41;1789929;79;21230;-56
2021/09/11 06:59:30;;;;;;;3.25;1.62;;;;;;;22.26;54.40;100902.41;1794573;79;21028;-56
2021/09/11 07:01:57;;;;;;;2.92;1.55;;;;;;;22.26;54.41;100902.97;1794116;79;20965;-57
2021/09/11 07:04:23;;;;;;;2.15;1.65;;;;;;;22.28;54.41;100911.77;1792396;78;21070;-56
2021/09/11 07:06:49;;;;;;;2.80;1.67;;;;;;;22.25;54.39;100911.86;1790425;78;21520;-56
2021/09/11 07:09:15;;;;;;;3.35;1.70;;;;;;;22.26;54.41;100910.72;1791157;78;22075;-57
2021/09/11 07:11:42;;;;;;;3.08;1.70;;;;;;;22.26;54.40;100910.72;1795188;79;21058;-56
2021/09/11 07:14:08;;;;;;;2.15;1.45;;;;;;;22.26;54.39;100914.06;1786655;78;21599;-57
2021/09/11 07:16:34;;;;;;;2.50;1.70;;;;;;;22.26;54.38;100914.06;1795076;78;21046;-56
2021/09/11 07:19:01;;;;;;;2.80;1.87;;;;;;;22.26;54.39;100909.91;1782225;78;20983;-56
2021/09/11 07:21:27;;;;;;;2.40;1.70;;;;;;;22.26;54.38;100909.91;1797354;79;21025;-57
2021/09/11 07:23:53;;;;;;;2.27;1.65;;;;;;;;;;1792332;79;20897;-56
2021/09/11 07:26:19;;;;;;;2.15;1.60;;;;;;;22.27;54.37;100907.38;1795009;79;21702;-57
2021/09/11 07:28:47;;;;;;;2.67;1.70;;;;;;;22.26;54.35;100907.95;1795390;79;21052;-56
2021/09/11 07:31:13;;;;;;;2.45;1.50;;;;;;;22.27;54.38;100908.77;1798135;78;21458;-56
2021/09/11 07:33:39;;;;;;;2.40;1.80;;;;;;;22.27;54.36;100912.92;1794768;79;21719;-57
2021/09/11 07:36:06;;;;;;;2.80;1.80;;;;;;;;;;1795982;78;21081;-57
2021/09/11 07:38:34;;;;;;;2.17;1.60;;;;;;;22.27;54.36;100915.70;1795500;78;21169;-57
2021/09/11 07:41:01;;;;;;;2.58;1.45;;;;;;;;;;1787174;78;21455;-57
2021/09/11 07:43:27;;;;;;;1.87;1.30;;;;;;;22.28;54.33;100919.51;1791911;78;21564;-57
2021/09/11 07:45:53;;;;;;;2.33;1.60;;;;;;;22.29;54.33;100917.56;1793486;78;23383;-56
2021/09/11 07:48:19;;;;;;;2.55;1.82;;;;;;;22.30;54.32;100923.35;1790583;79;20994;-57
2021/09/11 07:50:45;;;;;;;2.50;1.65;;;;;;;22.30;54.29;100917.23;1786323;79;21437;-57
2021/09/11 07:53:12;;;;;;;2.47;1.57;;;;;;;22.32;54.30;100917.72;1794410;79;21078;-57
2021/09/11 07:55:38;;;;;;;2.80;1.50;;;;;;;22.33;54.27;100914.38;1789272;78;21109;-56
2021/09/11 07:58:04;;;;;;;3.05;1.90;;;;;;;22.33;54.26;100908.27;1785198;78;21651;-57
2021/09/11 08:00:30;;;;;;;4.60;2.15;;;;;;;22.35;54.23;100903.79;1786727;79;20950;-57
2021/09/11 08:02:57;;;;;;;2.80;1.65;;;;;;;22.36;54.22;100899.88;1787409;78;21049;-56
2021/09/11 08:05:24;;;;;;;4.25;1.65;;;;;;;22.36;54.20;100890.75;1790821;78;21073;-56
2021/09/11 08:07:50;;;;;;;2.42;1.62;;;;;;;22.36;54.20;100894.34;1787781;78;21469;-56
2021/09/11 08:10:17;;;;;;;2.30;1.50;;;;;;;22.36;54.17;100891.56;1791422;79;21136;-56
2021/09/11 08:12:43;;;;;;;2.85;1.77;;;;;;;22.36;54.20;100890.18;1791900;79;21055;-58
2021/09/11 08:15:10;;;;;;;2.15;1.35;;;;;;;22.36;54.20;100893.52;1784620;78;21098;-56
2021/09/11 08:17:37;;;;;;;2.20;1.57;;;;;;;22.36;54.21;100893.52;1789327;79;21014;-57
2021/09/11 08:20:05;;;;;;;2.08;1.42;;;;;;;22.36;54.19;100880.48;1794733;78;20898;-56
2021/09/11 08:22:31;;;;;;;2.77;1.70;;;;;;;22.35;54.19;100884.39;1789318;78;21075;-57
2021/09/11 08:24:57;;;;;;;2.37;1.50;;;;;;;22.37;54.19;100886.81;1791072;78;21458;-57
2021/09/11 08:27:24;;;;;;;2.20;1.32;;;;;;;22.36;54.19;100884.64;1786210;78;21017;-57
2021/09/11 08:29:51;;;;;;;3.60;1.45;;;;;;;22.37;54.17;100884.04;1789292;79;21500;-57
2021/09/11 08:32:17;;;;;;;2.62;1.62;;;;;;;22.37;54.16;100883.47;1796248;78;21056;-57
2021/09/11 08:34:43;;;;;;;1.77;1.52;;;;;;;22.38;54.18;100885.11;1788275;79;21374;-57
2021/09/11 08:37:10;;;;;;;2.40;1.60;;;;;;;22.38;54.15;100879.56;1792839;79;21096;-57
2021/09/11 08:39:36;;;;;;;2.75;1.80;;;;;;;22.39;54.14;100881.20;1793664;78;21019;-57
2021/09/11 08:42:02;;;;;;;3.05;1.80;;;;;;;22.39;54.13;100874.27;1785612;79;20979;-57
2021/09/11 08:44:30;;;;;;;2.35;1.45;;;;;;;22.40;54.12;100868.16;1791452;78;21419;-57
2021/09/11 08:46:57;;;;;;;2.55;1.40;;;;;;;22.39;54.12;100870.11;1795923;78;21079;-56
2021/09/11 08:49:23;;;;;;;2.40;1.65;;;;;;;22.40;54.12;100864.82;1792266;78;21429;-57
2021/09/11 08:51:50;;;;;;;3.27;1.77;;;;;;;22.40;54.11;100863.44;1786631;78;21098;-57
2021/09/11 08:54:20;;;;;;;2.00;1.37;;;;;;;22.42;54.09;100865.86;1795477;79;21470;-57
2021/09/11 08:56:50;;;;;;;2.83;1.62;;;;;;;22.41;54.08;100854.52;1792114;78;21056;-57
2021/09/11 08:59:18;;;;;;;2.22;1.70;;;;;;;22.41;54.08;100856.72;1789860;78;21155;-59
2021/09/11 09:02:02;;;;;;;1.90;1.30;;;;;;;22.41;54.07;100851.18;1791122;78;22385;-57
2021/09/11 09:04:56;;;;;;;2.40;1.60;;;;;;;22.42;54.06;100852.81;1786052;79;21536;-57
2021/09/11 09:07:39;;;;;;;2.80;1.67;;;;;;;22.41;54.05;100852.56;1780579;78;21029;-57
2021/09/11 09:10:10;;;;;;;2.08;1.52;;;;;;;22.42;54.04;100844.50;1780838;78;21012;-58
2021/09/11 09:12:39;;;;;;;2.90;1.70;;;;;;;22.41;54.04;100838.70;1763506;78;21878;-57
2021/09/11 09:15:11;;;;;;;2.27;1.50;;;;;;;22.41;54.01;100835.93;1764096;78;21094;-58
2021/09/11 09:17:40;;;;;;;2.83;1.60;;;;;;;22.42;54.03;100837.56;1777888;78;21042;-58
2021/09/11 09:20:23;;;;;;;2.92;1.70;;;;;;;22.42;54.04;100836.75;1776652;78;21002;-57
2021/09/11 09:23:07;;;;;;;2.15;1.65;;;;;;;22.42;54.02;100831.20;1773823;78;21068;-57
2021/09/11 09:25:36;;;;;;;2.55;1.60;;;;;;;22.42;54.04;100840.34;1779143;78;21505;-57
2021/09/11 09:28:05;;;;;;;2.40;1.50;;;;;;;22.43;54.01;100828.69;1777309;78;20991;-57
2021/09/11 09:30:48;;;;;;;3.30;1.60;;;;;;;22.42;54.02;100829.25;1773190;78;21472;-57
2021/09/11 09:33:28;;;;;;;4.08;1.70;;;;;;;22.42;53.99;100832.02;1770656;78;21080;-57
2021/09/11 09:35:54;;;;;;;2.77;1.72;;;;;;;22.43;54.02;100827.30;1761781;78;21752;-56
2021/09/11 09:38:20;;;;;;;1.92;1.50;;;;;;;22.42;54.01;100822.32;1713527;78;21963;-57
2021/09/11 09:40:51;;;;;;;2.47;1.60;;;;;;;22.43;53.99;100820.36;1771068;78;21210;-57
2021/09/11 09:43:42;;;;;;;3.20;1.40;;;;;;;22.43;54.01;100821.19;1780283;78;21385;-58
2021/09/11 09:46:15;;;;;;;3.22;1.90;;;;;;;22.43;53.98;100814.25;1791219;78;21024;-56
2021/09/11 09:48:43;;;;;;;2.00;1.40;;;;;;;22.44;53.97;100814.50;1791899;78;21066;-57
2021/09/11 09:51:12;;;;;;;3.77;1.87;;;;;;;22.43;53.97;100800.39;1797696;78;21126;-56
2021/09/11 09:53:44;;;;;;;3.10;1.72;;;;;;;22.44;53.96;100802.59;1785027;79;21098;-58
2021/09/11 09:56:10;;;;;;;3.05;1.77;;;;;;;22.44;53.96;100807.58;1783586;78;21025;-58
2021/09/11 09:58:36;;;;;;;2.60;1.52;;;;;;;22.46;53.96;100803.06;1780209;79;21527;-58
2021/09/11 10:01:04;;;;;;;2.35;1.67;;;;;;;22.46;53.96;100798.34;1784985;78;21089;-57
2021/09/11 10:03:30;;;;;;;3.83;1.60;;;;;;;22.46;53.94;100802.49;1782864;79;22027;-58
2021/09/11 10:06:09;;;;;;;2.17;1.62;;;;;;;22.48;53.95;100802.99;1779830;78;21030;-57
2021/09/11 10:08:37;;;;;;;2.95;1.60;;;;;;;22.48;53.95;100798.84;1780270;78;21015;-58
2021/09/11 10:11:09;;;;;;;4.03;1.92;;;;;;;22.49;53.92;100801.83;1780476;78;21090;-57
2021/09/11 10:13:36;;;;;;;1.90;1.50;;;;;;;22.50;53.91;100801.25;1789010;78;21007;-57
2021/09/11 10:16:10;;;;;;;2.12;1.62;;;;;;;22.50;53.90;100797.91;1784845;78;21135;-58
2021/09/11 10:18:40;;;;;;;2.42;1.50;;;;;;;22.52;53.90;100805.91;1784544;78;21003;-58
2021/09/11 10:21:28;;;;;;;1.85;1.37;;;;;;;22.53;53.89;100799.23;1782977;79;21445;-58
2021/09/11 10:24:02;;;;;;;2.52;1.65;;;;;;;22.53;53.88;100801.41;1779972;78;21023;-58
2021/09/11 10:26:50;;;;;;;2.92;1.45;;;;;;;22.54;53.86;100796.11;1778466;78;21198;-58
2021/09/11 10:29:43;;;;;;;2.40;1.52;;;;;;;22.56;53.86;100802.72;1779890;79;21537;-58
2021/09/11 10:32:25;;;;;;;2.47;1.20;;;;;;;22.56;53.85;100791.06;1784378;78;20993;-58
2021/09/11 10:35:11;;;;;;;2.60;1.32;;;;;;;22.56;53.85;100792.45;1782652;79;21596;-58
2021/09/11 10:37:53;;;;;;;3.58;1.55;;;;;;;22.58;53.84;100798.45;1779853;79;21038;-57
2021/09/11 10:40:43;;;;;;;2.27;1.47;;;;;;;22.60;53.84;100803.69;1784793;78;21458;-58
2021/09/11 10:43:17;;;;;;;1.85;1.45;;;;;;;22.61;53.83;100797.82;1789794;79;21335;-57
2021/09/11 10:45:57;;;;;;;1.85;1.42;;;;;;;22.63;53.81;100795.52;1767182;78;20979;-57
2021/09/11 10:48:42;;;;;;;1.87;1.35;;;;;;;22.64;53.81;100790.22;1763931;79;21070;-57
2021/09/11 10:51:29;;;;;;;2.72;1.45;;;;;;;22.65;53.78;100786.30;1769278;79;21454;-57
2021/09/11 10:53:59;;;;;;;2.45;1.45;;;;;;;22.68;53.77;100782.86;1776521;79;20988;-56
2021/09/11 10:56:34;;;;;;;2.30;1.32;;;;;;;22.71;53.74;100782.78;1770557;79;21060;-56
2021/09/11 10:59:22;;;;;;;2.42;1.52;;;;;;;22.72;53.74;100775.53;1772985;79;21414;-56
2021/09/11 11:02:24;;;;;;;4.92;1.62;;;;;;;22.75;53.69;100777.62;1770692;79;20997;-56
2021/09/11 11:04:54;;;;;;;2.67;1.50;;;;;;;22.78;53.69;100778.94;1766656;79;20987;-56
2021/09/11 11:07:25;;;;;;;3.63;1.70;;;;;;;22.79;53.67;100768.06;1767630;79;21009;-56
2021/09/11 11:10:06;;;;;;;2.90;1.40;;;;;;;22.82;53.63;100765.22;1766137;79;21100;-56
2021/09/11 11:12:37;;;;;;;2.77;1.95;;;;;;;22.84;53.60;100760.95;1763657;79;21068;-56
2021/09/11 11:15:08;;;;;;;;;;;;;;;22.86;53.57;100762.02;1773828;79;21017;-56
2021/09/11 11:17:36;;;;;;;2.47;1.60;;;;;;;22.88;53.53;100756.92;1767255;79;20195;-57
2021/09/11 11:20:04;;;;;;;2.17;1.47;;;;;;;22.89;53.52;100753.02;1773625;79;21002;-56
2021/09/11 11:22:35;;;;;;;5.35;1.50;;;;;;;22.91;53.49;100757.67;1767642;79;21072;-57
2021/09/11 11:25:05;;;;;;;2.27;1.40;;;;;;;22.92;53.44;100746.22;1769662;79;21064;-57
2021/09/11 11:27:31;;;;;;;1.92;1.47;;;;;;;22.95;53.39;100745.56;1772295;79;21042;-57
2021/09/11 11:29:58;;;;;;;2.77;1.65;;;;;;;22.98;53.36;100746.84;1775288;79;20971;-57
2021/09/11 11:32:27;;;;;;;1.70;1.30;;;;;;;23.00;53.29;100750.91;1767167;79;21013;-57